Time;durP1;ratioP1;P1;durP2;ratioP2;P2;SDS_P1;SDS_P2;PMS_P1;PMS_P2;Temp;Humidity;BMP_temperature;BMP_pressure;BME280_temperature;BME280_humidity;BME280_pressure;Samples;Min_cycle;Max_cycle;Signal;HPM_P1;HPM_P2
2023/04/16 00:02:02;;;;;;;16.73;7.17;;;;;;;;;;5111983;28;20216;-82
2023/04/16 00:04:29;;;;;;;8.73;6.60;;;;;;;;;;5111904;28;20279;-81
2023/04/16 00:06:57;;;;;;;11.87;6.77;;;;;;;;;;5111369;28;20204;-81
2023/04/16 00:09:25;;;;;;;9.03;6.60;;;;;;;;;;5111607;28;20279;-81
2023/04/16 00:11:52;;;;;;;11.50;6.33;;;;;;;;;;5111030;28;20298;-81
2023/04/16 00:14:19;;;;;;;8.83;6.23;;;;;;;;;;5111241;28;21055;-80
2023/04/16 00:16:46;;;;;;;12.60;6.13;;;;;;;;;;5111649;28;20738;-81
2023/04/16 00:19:13;;;;;;;10.27;6.40;;;;;;;;;;5111321;28;20203;-81
2023/04/16 00:21:40;;;;;;;11.13;7.10;;;;;;;;;;5111545;28;20220;-81
2023/04/16 00:24:09;;;;;;;10.07;6.63;;;;;;;;;;5111184;28;20643;-80
2023/04/16 00:26:37;;;;;;;14.53;8.17;;;;;;;;;;5111234;28;20620;-81
2023/04/16 00:29:04;;;;;;;14.13;7.90;;;;;;;;;;5111531;28;20292;-81
2023/04/16 00:31:32;;;;;;;11.83;8.23;;;;;;;;;;5111000;28;20244;-81
2023/04/16 00:33:59;;;;;;;13.83;8.17;;;;;;;;;;5111192;28;20278;-82
2023/04/16 00:36:27;;;;;;;15.00;8.87;;;;;;;;;;5110984;28;20273;-81
2023/04/16 00:38:54;;;;;;;13.13;8.07;;;;;;;;;;5111619;28;20314;-81
2023/04/16 00:41:23;;;;;;;11.50;6.57;;;;;;;;;;5110689;28;20714;-81
2023/04/16 00:43:51;;;;;;;10.80;6.30;;;;;;;;;;5111474;28;20196;-80
2023/04/16 00:46:20;;;;;;;9.97;7.07;;;;;;;;;;5111104;28;20560;-80
2023/04/16 00:48:47;;;;;;;11.90;7.30;;;;;;;;;;5110839;28;20283;-80
2023/04/16 00:51:14;;;;;;;13.03;7.43;;;;;;;;;;5111231;28;20764;-81
2023/04/16 00:53:41;;;;;;;13.90;7.70;;;;;;;;;;5111430;28;20289;-82
2023/04/16 00:56:08;;;;;;;11.83;6.87;;;;;;;;;;5110712;28;20640;-81
2023/04/16 00:58:37;;;;;;;13.80;7.13;;;;;;;;;;5110962;28;20327;-80
2023/04/16 01:01:04;;;;;;;8.97;6.57;;;;;;;;;;5110566;28;20571;-81
2023/04/16 01:03:35;;;;;;;10.40;7.17;;;;;;;;;;5110736;28;20191;-81
2023/04/16 01:06:02;;;;;;;15.00;7.77;;;;;;;;;;5114867;28;20286;-81
2023/04/16 01:08:29;;;;;;;11.43;7.73;;;;;;;;;;5115038;28;20200;-81
2023/04/16 01:10:56;;;;;;;9.77;7.67;;;;;;;;;;5114555;28;20190;-81
2023/04/16 01:13:24;;;;;;;15.33;8.30;;;;;;;;;;5101787;28;20406;-80
2023/04/16 01:15:53;;;;;;;11.23;7.73;;;;;;;;;;5114841;28;20226;-81
2023/04/16 01:18:21;;;;;;;13.23;8.33;;;;;;;;;;5114226;28;20229;-81
2023/04/16 01:20:49;;;;;;;10.53;8.17;;;;;;;;;;5114523;28;20203;-81
2023/04/16 01:23:17;;;;;;;11.97;7.93;;;;;;;;;;5114277;28;20664;-81
2023/04/16 01:25:44;;;;;;;12.93;7.80;;;;;;;;;;5114962;28;20204;-81
2023/04/16 01:28:12;;;;;;;12.67;7.23;;;;;;;;;;5114271;28;20727;-80
2023/04/16 01:30:39;;;;;;;11.10;7.17;;;;;;;;;;5114425;28;20286;-80
2023/04/16 01:33:06;;;;;;;11.30;6.80;;;;;;;;;;5114023;28;20221;-81
2023/04/16 01:35:34;;;;;;;12.67;7.17;;;;;;;;;;5114260;28;20187;-81
2023/04/16 01:38:03;;;;;;;9.20;6.80;;;;;;;;;;5114422;28;20234;-80
2023/04/16 01:40:30;;;;;;;9.70;6.67;;;;;;;;;;5113860;28;20439;-80
2023/04/16 01:42:57;;;;;;;11.43;7.27;;;;;;;;;;5114329;28;20198;-80
2023/04/16 01:45:24;;;;;;;11.63;7.30;;;;;;;;;;5113909;28;20291;-80
2023/04/16 01:47:52;;;;;;;11.97;7.70;;;;;;;;;;5114133;28;20300;-80
2023/04/16 01:50:19;;;;;;;9.53;6.50;;;;;;;;;;5113859;28;20224;-81
2023/04/16 01:52:46;;;;;;;11.37;7.70;;;;;;;;;;5113930;28;20197;-81
2023/04/16 01:55:15;;;;;;;10.70;7.37;;;;;;;;;;5113836;28;20655;-80
2023/04/16 01:57:42;;;;;;;11.50;7.00;;;;;;;;;;5113597;28;20603;-81
2023/04/16 02:00:10;;;;;;;9.40;6.83;;;;;;;;;;5114197;28;20286;-80
2023/04/16 02:02:37;;;;;;;9.47;7.07;;;;;;;;;;5113693;28;20647;-80
2023/04/16 02:05:05;;;;;;;10.07;6.37;;;;;;;;;;5113065;28;20225;-81
2023/04/16 02:07:32;;;;;;;9.93;7.17;;;;;;;;;;5113436;28;20203;-80
2023/04/16 02:09:59;;;;;;;10.53;7.10;;;;;;;;;;5113614;28;20285;-80
2023/04/16 02:12:27;;;;;;;9.23;6.63;;;;;;;;;;5113486;28;20289;-80
2023/04/16 02:14:55;;;;;;;10.20;6.87;;;;;;;;;;5113018;28;20226;-80
2023/04/16 02:17:22;;;;;;;14.87;7.60;;;;;;;;;;5111899;28;20218;-79
2023/04/16 02:19:49;;;;;;;12.60;7.37;;;;;;;;;;5113184;28;20195;-81
2023/04/16 02:22:16;;;;;;;12.17;8.20;;;;;;;;;;5113674;28;20283;-81
2023/04/16 02:24:43;;;;;;;13.00;8.10;;;;;;;;;;5113424;28;20278;-80
2023/04/16 02:27:11;;;;;;;13.57;7.90;;;;;;;;;;5113264;28;20287;-80
2023/04/16 02:29:39;;;;;;;13.40;8.10;;;;;;;;;;5113601;28;20217;-80
2023/04/16 02:32:06;;;;;;;12.80;8.73;;;;;;;;;;5112818;28;20230;-81
2023/04/16 02:34:34;;;;;;;13.63;8.07;;;;;;;;;;5113110;28;20291;-80
2023/04/16 02:37:01;;;;;;;12.60;8.00;;;;;;;;;;5112919;28;20223;-80
2023/04/16 02:39:28;;;;;;;12.60;7.80;;;;;;;;;;5104453;28;20241;-80
2023/04/16 02:41:56;;;;;;;11.07;7.30;;;;;;;;;;5098623;28;20324;-79
2023/04/16 02:44:23;;;;;;;10.13;8.13;;;;;;;;;;5092886;28;20203;-81
2023/04/16 02:46:52;;;;;;;10.33;8.10;;;;;;;;;;5107193;28;20231;-79
2023/04/16 02:49:19;;;;;;;13.33;8.13;;;;;;;;;;5113216;28;20227;-80
2023/04/16 02:51:46;;;;;;;13.90;7.83;;;;;;;;;;5112910;28;20576;-81
2023/04/16 02:54:14;;;;;;;11.07;7.77;;;;;;;;;;5112799;28;20272;-81
2023/04/16 02:56:41;;;;;;;11.53;7.50;;;;;;;;;;5112338;28;20768;-81
2023/04/16 02:59:08;;;;;;;11.57;7.77;;;;;;;;;;5111781;28;20732;-80
2023/04/16 03:01:35;;;;;;;9.93;7.50;;;;;;;;;;5112422;28;20227;-80
2023/04/16 03:04:04;;;;;;;11.80;7.67;;;;;;;;;;5112974;28;20291;-81
2023/04/16 03:06:31;;;;;;;13.17;8.00;;;;;;;;;;5112233;28;20282;-80
2023/04/16 03:08:58;;;;;;;9.57;6.80;;;;;;;;;;5112447;28;20229;-80
2023/04/16 03:11:26;;;;;;;12.00;7.20;;;;;;;;;;5112465;28;20597;-80
2023/04/16 03:13:53;;;;;;;10.20;7.20;;;;;;;;;;5112125;28;20208;-81
2023/04/16 03:16:20;;;;;;;11.20;7.37;;;;;;;;;;5111977;28;20238;-80
2023/04/16 03:18:47;;;;;;;9.37;7.70;;;;;;;;;;5111985;28;20310;-80
2023/04/16 03:21:16;;;;;;;10.10;7.27;;;;;;;;;;5112368;28;20243;-80
2023/04/16 03:23:43;;;;;;;12.37;7.80;;;;;;;;;;5112063;28;20285;-80
2023/04/16 03:26:10;;;;;;;12.70;7.83;;;;;;;;;;5111764;28;20294;-80
2023/04/16 03:28:37;;;;;;;11.10;7.53;;;;;;;;;;5112063;28;20219;-80
2023/04/16 03:31:04;;;;;;;9.37;7.27;;;;;;;;;;5112644;28;20566;-80
2023/04/16 03:33:32;;;;;;;11.17;7.87;;;;;;;;;;5112160;28;20231;-81
2023/04/16 03:35:59;;;;;;;10.50;7.33;;;;;;;;;;5111755;28;20392;-81
2023/04/16 03:38:27;;;;;;;15.27;7.63;;;;;;;;;;5112095;28;20286;-80
2023/04/16 03:40:55;;;;;;;9.83;7.00;;;;;;;;;;5111895;28;20334;-79
2023/04/16 03:43:22;;;;;;;11.20;7.47;;;;;;;;;;5111143;28;20203;-80
2023/04/16 03:45:49;;;;;;;12.30;8.13;;;;;;;;;;5111339;28;20187;-80
2023/04/16 03:48:16;;;;;;;12.47;8.13;;;;;;;;;;5111980;28;20200;-81
2023/04/16 03:50:46;;;;;;;11.27;7.87;;;;;;;;;;5112182;28;20286;-81
2023/04/16 03:53:13;;;;;;;12.00;8.10;;;;;;;;;;5111860;28;20195;-81
2023/04/16 03:55:42;;;;;;;12.07;8.13;;;;;;;;;;5111793;28;20282;-80
2023/04/16 03:58:09;;;;;;;9.97;7.43;;;;;;;;;;5111305;28;20228;-80
2023/04/16 04:00:37;;;;;;;12.90;8.07;;;;;;;;;;5111849;28;20286;-80
2023/04/16 04:03:04;;;;;;;12.87;8.20;;;;;;;;;;5111690;28;20688;-80
2023/04/16 04:05:31;;;;;;;10.90;7.77;;;;;;;;;;5111763;28;20201;-80
2023/04/16 04:07:58;;;;;;;12.47;8.13;;;;;;;;;;5111555;28;20299;-80
2023/04/16 04:10:25;;;;;;;11.93;7.60;;;;;;;;;;5110905;28;20193;-80
2023/04/16 04:12:54;;;;;;;11.53;7.73;;;;;;;;;;5111190;28;20285;-79
2023/04/16 04:15:21;;;;;;;14.37;8.10;;;;;;;;;;5111521;28;20203;-79
2023/04/16 04:17:48;;;;;;;9.43;7.30;;;;;;;;;;5111813;28;20319;-81
2023/04/16 04:20:15;;;;;;;10.40;7.80;;;;;;;;;;5111599;28;20529;-80
2023/04/16 04:22:43;;;;;;;14.17;8.40;;;;;;;;;;5111600;28;20640;-81
2023/04/16 04:25:10;;;;;;;11.40;7.53;;;;;;;;;;5091106;28;20287;-80
2023/04/16 04:27:37;;;;;;;11.33;7.67;;;;;;;;;;5090446;28;20291;-81
2023/04/16 04:30:07;;;;;;;11.63;7.23;;;;;;;;;;5091125;28;20192;-79
2023/04/16 04:32:34;;;;;;;13.10;7.90;;;;;;;;;;5090487;28;20287;-81
2023/04/16 04:35:02;;;;;;;11.50;7.13;;;;;;;;;;5109696;28;20664;-79
2023/04/16 04:37:29;;;;;;;9.93;7.77;;;;;;;;;;5111154;28;20757;-80
2023/04/16 04:39:56;;;;;;;10.07;6.87;;;;;;;;;;5113793;28;20295;-80
2023/04/16 04:42:23;;;;;;;11.03;6.80;;;;;;;;;;5114620;28;20303;-80
2023/04/16 04:44:51;;;;;;;13.60;7.37;;;;;;;;;;5114951;28;20289;-81
2023/04/16 04:47:19;;;;;;;11.10;8.07;;;;;;;;;;5115139;28;20235;-81
2023/04/16 04:49:46;;;;;;;11.83;7.30;;;;;;;;;;5115220;28;20220;-80
2023/04/16 04:52:14;;;;;;;14.73;7.33;;;;;;;;;;5115379;28;20198;-80
2023/04/16 04:54:41;;;;;;;12.57;7.40;;;;;;;;;;5114662;28;20285;-80
2023/04/16 04:57:08;;;;;;;11.17;6.83;;;;;;;;;;5114460;28;20785;-80
2023/04/16 04:59:36;;;;;;;12.23;7.13;;;;;;;;;;5115105;28;20223;-80
2023/04/16 05:02:03;;;;;;;13.33;7.17;;;;;;;;;;5115079;28;20205;-80
2023/04/16 05:04:31;;;;;;;11.47;7.50;;;;;;;;;;5114392;28;20225;-80
2023/04/16 05:06:59;;;;;;;12.20;7.30;;;;;;;;;;5115280;28;20221;-80
2023/04/16 05:09:26;;;;;;;9.30;6.67;;;;;;;;;;5114669;28;20273;-81
2023/04/16 05:11:53;;;;;;;12.43;7.70;;;;;;;;;;5114568;28;20226;-81
2023/04/16 05:14:20;;;;;;;11.63;7.87;;;;;;;;;;5114083;28;20229;-80
2023/04/16 05:16:47;;;;;;;12.77;7.40;;;;;;;;;;5114448;28;20192;-82
2023/04/16 05:19:15;;;;;;;15.47;7.87;;;;;;;;;;5114339;28;20214;-81
2023/04/16 05:21:43;;;;;;;13.53;7.70;;;;;;;;;;5114594;28;20226;-82
2023/04/16 05:24:10;;;;;;;9.40;7.50;;;;;;;;;;5114260;28;20223;-80
2023/04/16 05:26:37;;;;;;;11.10;7.57;;;;;;;;;;5114174;28;20560;-80
2023/04/16 05:29:05;;;;;;;12.37;8.00;;;;;;;;;;5114513;28;20725;-80
2023/04/16 05:31:32;;;;;;;10.63;8.03;;;;;;;;;;5114362;28;20281;-80
2023/04/16 05:33:59;;;;;;;11.30;7.80;;;;;;;;;;5114104;28;20199;-81
2023/04/16 05:36:26;;;;;;;13.43;8.47;;;;;;;;;;5114247;28;20201;-80
2023/04/16 05:38:54;;;;;;;12.17;8.10;;;;;;;;;;5113972;28;20236;-80
2023/04/16 05:41:22;;;;;;;12.77;8.37;;;;;;;;;;5114059;28;20318;-80
2023/04/16 05:43:49;;;;;;;10.33;8.17;;;;;;;;;;5114318;28;20200;-81
2023/04/16 05:46:16;;;;;;;11.97;8.37;;;;;;;;;;5114121;28;20191;-80
2023/04/16 05:48:43;;;;;;;12.97;8.17;;;;;;;;;;5113827;28;20233;-80
2023/04/16 05:51:10;;;;;;;9.13;7.20;;;;;;;;;;5113474;28;20288;-82
2023/04/16 05:53:37;;;;;;;10.23;7.60;;;;;;;;;;5113012;28;20230;-81
2023/04/16 05:56:07;;;;;;;10.83;7.13;;;;;;;;;;5113684;28;20726;-81
2023/04/16 05:58:34;;;;;;;11.80;6.90;;;;;;;;;;5114287;28;20313;-81
2023/04/16 06:01:02;;;;;;;10.27;6.83;;;;;;;;;;5113828;28;20197;-80
2023/04/16 06:03:29;;;;;;;8.80;6.70;;;;;;;;;;5113329;28;20210;-81
2023/04/16 06:05:56;;;;;;;8.63;6.67;;;;;;;;;;5113087;28;20284;-81
2023/04/16 06:08:23;;;;;;;9.67;7.17;;;;;;;;;;5113461;28;20232;-81
2023/04/16 06:10:51;;;;;;;9.80;6.50;;;;;;;;;;5113860;28;20298;-81
2023/04/16 06:13:19;;;;;;;9.33;6.73;;;;;;;;;;5113331;28;20206;-81
2023/04/16 06:15:46;;;;;;;10.00;6.80;;;;;;;;;;5113467;28;20193;-80
2023/04/16 06:18:14;;;;;;;10.97;7.97;;;;;;;;;;5114056;28;20238;-80
2023/04/16 06:20:41;;;;;;;11.53;7.97;;;;;;;;;;5113203;28;20200;-80
2023/04/16 06:23:08;;;;;;;11.77;8.17;;;;;;;;;;5113151;28;20240;-80
2023/04/16 06:25:35;;;;;;;13.97;7.83;;;;;;;;;;5113411;28;20309;-81
2023/04/16 06:28:02;;;;;;;10.07;6.90;;;;;;;;;;5113622;28;20229;-80
2023/04/16 06:30:31;;;;;;;10.20;7.80;;;;;;;;;;5113495;28;20234;-80
2023/04/16 06:32:58;;;;;;;10.67;7.57;;;;;;;;;;5113089;28;20195;-80
2023/04/16 06:35:25;;;;;;;8.63;6.73;;;;;;;;;;5113220;28;20213;-81
2023/04/16 06:37:52;;;;;;;7.20;6.20;;;;;;;;;;5112079;28;20231;-80
2023/04/16 06:40:20;;;;;;;8.80;7.10;;;;;;;;;;5112765;28;20229;-80
2023/04/16 06:42:47;;;;;;;8.00;5.80;;;;;;;;;;5113227;28;20280;-80
2023/04/16 06:45:14;;;;;;;7.17;4.83;;;;;;;;;;5112766;28;20620;-79
2023/04/16 06:47:43;;;;;;;5.63;5.03;;;;;;;;;;5112916;28;20300;-80
2023/04/16 06:50:10;;;;;;;6.00;5.07;;;;;;;;;;5112858;28;20198;-80
2023/04/16 06:52:38;;;;;;;6.60;4.83;;;;;;;;;;5112218;28;20288;-80
2023/04/16 06:55:07;;;;;;;6.07;5.13;;;;;;;;;;5112465;28;20229;-80
2023/04/16 06:57:34;;;;;;;7.10;6.40;;;;;;;;;;5111860;28;20239;-81
2023/04/16 07:00:01;;;;;;;6.17;5.30;;;;;;;;;;5112497;28;20292;-80
2023/04/16 07:02:28;;;;;;;6.28;5.22;;;;;;;;;;5112851;28;20223;-80
2023/04/16 07:04:57;;;;;;;5.75;5.25;;;;;;;;;;5111776;28;20198;-80
2023/04/16 07:07:24;;;;;;;5.82;5.00;;;;;;;;;;5112347;28;20715;-80
2023/04/16 07:09:51;;;;;;;5.93;5.43;;;;;;;;;;5112136;28;20220;-79
2023/04/16 07:12:18;;;;;;;6.32;5.72;;;;;;;;;;5112296;28;20685;-80
2023/04/16 07:14:46;;;;;;;6.40;5.30;;;;;;;;;;5112147;28;20297;-79
2023/04/16 07:17:13;;;;;;;7.20;5.80;;;;;;;;;;5112520;28;20292;-80
2023/04/16 07:19:40;;;;;;;6.53;5.75;;;;;;;;;;5112469;28;20281;-82
2023/04/16 07:22:08;;;;;;;8.02;6.25;;;;;;;;;;5111501;28;20225;-82
2023/04/16 07:24:36;;;;;;;6.35;5.75;;;;;;;;;;5111769;28;20297;-82
2023/04/16 07:27:03;;;;;;;7.03;6.40;;;;;;;;;;5112639;28;20288;-80
2023/04/16 07:29:30;;;;;;;7.18;6.47;;;;;;;;;;5111763;28;20289;-82
2023/04/16 07:31:58;;;;;;;8.00;6.90;;;;;;;;;;5111816;28;20285;-82
2023/04/16 07:34:25;;;;;;;7.85;7.15;;;;;;;;;;5112035;28;20237;-82
2023/04/16 07:36:52;;;;;;;7.70;7.00;;;;;;;;;;5111741;28;20197;-81
2023/04/16 07:39:20;;;;;;;7.60;6.90;;;;;;;;;;5111149;28;21028;-80
2023/04/16 07:41:48;;;;;;;7.95;7.25;;;;;;;;;;5111176;28;20313;-82
2023/04/16 07:44:15;;;;;;;7.00;6.40;;;;;;;;;;5111527;28;20662;-82
2023/04/16 07:46:42;;;;;;;8.32;7.53;;;;;;;;;;5112127;28;20289;-83
2023/04/16 07:49:09;;;;;;;7.40;6.70;;;;;;;;;;5111046;28;20292;-82
2023/04/16 07:51:36;;;;;;;7.43;6.82;;;;;;;;;;5111724;28;20194;-81
2023/04/16 07:54:04;;;;;;;7.43;6.75;;;;;;;;;;5111832;28;20247;-79
2023/04/16 07:56:32;;;;;;;7.43;6.72;;;;;;;;;;5111458;28;20309;-82
2023/04/16 07:58:59;;;;;;;7.40;6.70;;;;;;;;;;5111704;28;20325;-83
2023/04/16 08:01:27;;;;;;;7.40;6.70;;;;;;;;;;5111536;28;20276;-82
2023/04/16 08:03:54;;;;;;;7.25;6.47;;;;;;;;;;5109857;28;20202;-83
2023/04/16 08:06:21;;;;;;;7.13;6.53;;;;;;;;;;5106088;28;20280;-82
2023/04/16 08:08:48;;;;;;;6.97;6.38;;;;;;;;;;5091031;28;20289;-82
2023/04/16 08:11:16;;;;;;;6.35;5.80;;;;;;;;;;5093519;28;20296;-81
2023/04/16 08:13:44;;;;;;;6.85;5.82;;;;;;;;;;5108807;28;20232;-79
2023/04/16 08:16:11;;;;;;;5.80;5.30;;;;;;;;;;5111688;28;20197;-79
2023/04/16 08:18:39;;;;;;;6.00;5.50;;;;;;;;;;5110401;28;20289;-78
2023/04/16 08:21:06;;;;;;;5.80;5.30;;;;;;;;;;5111133;28;20233;-78
2023/04/16 08:23:33;;;;;;;5.60;5.07;;;;;;;;;;5111318;28;20613;-79
2023/04/16 08:26:01;;;;;;;6.18;5.63;;;;;;;;;;5077693;28;20320;-78
2023/04/16 08:28:28;;;;;;;7.43;5.40;;;;;;;;;;5105280;28;20198;-79
2023/04/16 08:30:57;;;;;;;8.18;6.22;;;;;;;;;;5102354;28;20332;-78
2023/04/16 08:33:24;;;;;;;6.00;5.40;;;;;;;;;;5102579;28;20233;-79
2023/04/16 08:35:51;;;;;;;5.38;4.88;;;;;;;;;;5105142;28;20225;-79
2023/04/16 08:38:18;;;;;;;6.03;5.15;;;;;;;;;;5111553;28;20780;-79
2023/04/16 08:40:46;;;;;;;5.40;4.90;;;;;;;;;;5098705;28;20778;-78
2023/04/16 08:43:13;;;;;;;6.45;4.80;;;;;;;;;;5107060;28;20221;-79
2023/04/16 08:45:41;;;;;;;5.53;4.97;;;;;;;;;;5110993;28;20276;-81
2023/04/16 08:48:12;;;;;;;5.78;5.18;;;;;;;;;;5108527;28;20614;-79
2023/04/16 08:50:39;;;;;;;5.65;5.15;;;;;;;;;;5099394;28;20281;-79
2023/04/16 08:53:07;;;;;;;5.88;5.38;;;;;;;;;;5106500;28;20662;-79
2023/04/16 08:55:37;;;;;;;5.55;5.05;;;;;;;;;;5116814;28;20202;-78
2023/04/16 08:58:07;;;;;;;5.50;4.97;;;;;;;;;;5110982;28;20221;-79
2023/04/16 09:00:35;;;;;;;6.82;5.18;;;;;;;;;;5109182;28;20216;-79
2023/04/16 09:03:03;;;;;;;6.10;5.50;;;;;;;;;;5110954;28;20229;-80
2023/04/16 09:05:32;;;;;;;6.20;4.95;;;;;;;;;;5110503;28;20222;-79
2023/04/16 09:07:59;;;;;;;5.78;5.18;;;;;;;;;;5109324;28;20214;-82
2023/04/16 09:10:27;;;;;;;6.75;4.78;;;;;;;;;;5108609;28;20673;-80
2023/04/16 09:12:56;;;;;;;5.72;5.15;;;;;;;;;;5095929;28;20237;-80
2023/04/16 09:15:24;;;;;;;6.05;5.22;;;;;;;;;;5109515;28;20200;-80
2023/04/16 09:17:51;;;;;;;5.20;4.38;;;;;;;;;;5099221;28;20202;-80
2023/04/16 09:20:19;;;;;;;5.72;5.22;;;;;;;;;;5099826;28;20198;-78
2023/04/16 09:22:47;;;;;;;8.02;5.43;;;;;;;;;;5098174;28;20233;-81
2023/04/16 09:25:15;;;;;;;7.35;5.15;;;;;;;;;;5095779;28;20293;-82
2023/04/16 09:27:43;;;;;;;6.13;4.88;;;;;;;;;;5113044;27;20284;-81
2023/04/16 09:30:21;;;;;;;7.68;4.50;;;;;;;;;;5114892;27;20296;-82
2023/04/16 09:32:48;;;;;;;4.95;4.07;;;;;;;;;;5095641;28;20202;-81
2023/04/16 09:35:15;;;;;;;5.47;4.30;;;;;;;;;;5113393;28;20277;-81
2023/04/16 09:37:43;;;;;;;6.32;3.83;;;;;;;;;;5107699;28;20197;-81
2023/04/16 09:40:12;;;;;;;5.60;3.83;;;;;;;;;;5096178;28;20264;-81
2023/04/16 09:42:39;;;;;;;5.25;4.03;;;;;;;;;;5110461;28;20282;-79
2023/04/16 09:45:07;;;;;;;4.90;4.18;;;;;;;;;;5097481;28;20202;-80
2023/04/16 09:47:41;;;;;;;6.47;3.97;;;;;;;;;;5093404;28;20195;-78
2023/04/16 09:50:08;;;;;;;4.68;3.50;;;;;;;;;;5109195;28;20749;-78
2023/04/16 09:52:37;;;;;;;5.68;4.18;;;;;;;;;;5104102;28;20678;-80
2023/04/16 09:55:04;;;;;;;7.55;4.10;;;;;;;;;;5114205;28;20197;-79
2023/04/16 09:57:33;;;;;;;5.43;4.30;;;;;;;;;;5102186;28;20230;-81
2023/04/16 10:00:02;;;;;;;5.20;4.47;;;;;;;;;;5111962;28;20228;-80
2023/04/16 10:02:30;;;;;;;6.68;4.53;;;;;;;;;;5111551;28;20897;-80
2023/04/16 10:04:57;;;;;;;6.25;4.38;;;;;;;;;;5113523;28;20201;-79
2023/04/16 10:07:28;;;;;;;6.43;4.50;;;;;;;;;;5112098;28;20297;-79
2023/04/16 10:09:55;;;;;;;6.63;5.05;;;;;;;;;;5104540;28;20288;-80
2023/04/16 10:12:23;;;;;;;5.32;4.40;;;;;;;;;;5109349;28;20202;-78
2023/04/16 10:14:51;;;;;;;7.80;5.93;;;;;;;;;;5113133;28;20229;-78
2023/04/16 10:17:19;;;;;;;6.20;4.95;;;;;;;;;;5112760;28;20190;-79
2023/04/16 10:19:46;;;;;;;5.28;4.05;;;;;;;;;;5111125;27;20308;-80
2023/04/16 10:22:13;;;;;;;5.75;5.10;;;;;;;;;;5110351;28;20236;-80
2023/04/16 10:24:41;;;;;;;6.20;4.72;;;;;;;;;;5113613;28;20270;-79
2023/04/16 10:27:08;;;;;;;7.53;4.82;;;;;;;;;;5112047;28;20273;-79
2023/04/16 10:29:36;;;;;;;6.43;4.18;;;;;;;;;;5112966;28;20288;-80
2023/04/16 10:32:07;;;;;;;6.55;4.55;;;;;;;;;;5112973;28;20221;-79
2023/04/16 10:34:34;;;;;;;4.82;4.05;;;;;;;;;;5107998;27;20184;-78
2023/04/16 10:37:01;;;;;;;4.95;4.45;;;;;;;;;;5111849;27;20202;-78
2023/04/16 10:39:29;;;;;;;5.38;4.13;;;;;;;;;;5112446;28;20198;-78
2023/04/16 10:42:08;;;;;;;5.05;3.78;;;;;;;;;;5112559;28;20226;-79
2023/04/16 10:44:35;;;;;;;7.38;4.53;;;;;;;;;;5112731;28;20204;-79
2023/04/16 10:47:03;;;;;;;5.93;3.90;;;;;;;;;;5112556;28;20193;-78
2023/04/16 10:49:31;;;;;;;9.95;7.70;;;;;;;;;;5112337;28;20304;-78
2023/04/16 10:51:59;;;;;;;8.38;6.10;;;;;;;;;;5112630;27;20580;-79
2023/04/16 10:54:29;;;;;;;4.90;4.40;;;;;;;;;;5108444;28;20206;-78
2023/04/16 10:56:57;;;;;;;8.23;7.07;;;;;;;;;;5098547;28;20198;-80
2023/04/16 10:59:24;;;;;;;5.82;4.88;;;;;;;;;;5111091;28;20304;-79
2023/04/16 11:01:52;;;;;;;7.50;4.43;;;;;;;;;;5106968;28;20651;-79
2023/04/16 11:04:44;;;;;;;7.45;4.28;;;;;;;;;;5111182;28;20221;-80
2023/04/16 11:07:17;;;;;;;5.43;3.35;;;;;;;;;;5092235;28;20197;-80
2023/04/16 11:09:50;;;;;;;6.18;4.07;;;;;;;;;;5106527;28;20228;-80
2023/04/16 11:12:18;;;;;;;5.53;4.40;;;;;;;;;;5112300;28;20293;-80
2023/04/16 11:14:47;;;;;;;4.60;3.70;;;;;;;;;;5096347;28;20304;-80
2023/04/16 11:17:15;;;;;;;5.38;3.75;;;;;;;;;;5095023;28;20288;-81
2023/04/16 11:19:43;;;;;;;4.00;3.38;;;;;;;;;;5105823;28;20608;-80
2023/04/16 11:22:12;;;;;;;4.20;3.30;;;;;;;;;;5111844;28;20232;-80
2023/04/16 11:24:41;;;;;;;4.28;3.45;;;;;;;;;;5107754;28;20205;-79
2023/04/16 11:27:08;;;;;;;5.93;3.70;;;;;;;;;;5106155;28;20284;-80
2023/04/16 11:29:35;;;;;;;7.55;4.57;;;;;;;;;;5092654;28;20698;-80
2023/04/16 11:32:03;;;;;;;6.35;3.90;;;;;;;;;;5091929;28;20282;-79
2023/04/16 11:34:30;;;;;;;5.10;3.90;;;;;;;;;;5094131;28;20251;-80
2023/04/16 11:36:57;;;;;;;5.82;3.90;;;;;;;;;;5095990;28;20298;-79
2023/04/16 11:39:24;;;;;;;5.20;4.05;;;;;;;;;;5106178;28;20769;-79
2023/04/16 11:41:54;;;;;;;4.55;4.00;;;;;;;;;;5090580;28;20762;-80
2023/04/16 11:44:22;;;;;;;4.80;3.35;;;;;;;;;;5103037;28;20198;-80
2023/04/16 11:46:49;;;;;;;4.20;3.17;;;;;;;;;;5098708;28;20221;-81
2023/04/16 11:49:16;;;;;;;5.32;4.00;;;;;;;;;;5110824;28;20229;-80
2023/04/16 11:51:44;;;;;;;5.32;3.03;;;;;;;;;;5109271;28;20204;-79
2023/04/16 11:54:18;;;;;;;4.43;3.20;;;;;;;;;;5111611;28;20292;-80
2023/04/16 11:56:46;;;;;;;5.55;3.50;;;;;;;;;;5110795;28;20189;-80
2023/04/16 11:59:15;;;;;;;3.97;3.50;;;;;;;;;;5111706;28;20296;-80
2023/04/16 12:01:44;;;;;;;4.53;3.80;;;;;;;;;;5112647;27;20289;-79
2023/04/16 12:04:12;;;;;;;4.32;3.33;;;;;;;;;;5110937;28;20201;-79
2023/04/16 12:06:39;;;;;;;4.30;3.13;;;;;;;;;;5111390;28;20292;-79
2023/04/16 12:09:25;;;;;;;4.22;3.42;;;;;;;;;;5111287;28;20224;-80
2023/04/16 12:11:53;;;;;;;4.43;3.30;;;;;;;;;;5107700;28;20188;-79
2023/04/16 12:14:21;;;;;;;4.30;3.00;;;;;;;;;;5114081;28;20200;-80
2023/04/16 12:16:48;;;;;;;4.28;3.42;;;;;;;;;;5110661;28;20197;-79
2023/04/16 12:19:16;;;;;;;6.85;3.40;;;;;;;;;;5101557;28;20302;-80
2023/04/16 12:21:44;;;;;;;5.85;3.20;;;;;;;;;;5110432;28;20198;-79
2023/04/16 12:24:12;;;;;;;4.15;3.40;;;;;;;;;;5111375;28;20257;-80
2023/04/16 12:26:44;;;;;;;4.72;3.30;;;;;;;;;;5110549;28;20571;-80
2023/04/16 12:29:22;;;;;;;5.20;3.00;;;;;;;;;;5111293;28;20253;-80
2023/04/16 12:31:50;;;;;;;5.45;3.22;;;;;;;;;;5124943;28;20214;-79
2023/04/16 12:34:17;;;;;;;4.30;2.97;;;;;;;;;;5111557;28;20276;-80
2023/04/16 12:36:46;;;;;;;5.68;3.05;;;;;;;;;;5117348;28;20205;-80
2023/04/16 12:39:13;;;;;;;3.88;3.20;;;;;;;;;;5110571;28;20194;-79
2023/04/16 12:41:41;;;;;;;4.97;3.00;;;;;;;;;;5111054;28;20223;-79
2023/04/16 12:44:10;;;;;;;3.97;2.50;;;;;;;;;;5110213;28;20631;-79
2023/04/16 12:46:39;;;;;;;4.65;2.78;;;;;;;;;;5108450;28;20678;-79
2023/04/16 12:49:06;;;;;;;5.07;3.20;;;;;;;;;;5107646;28;20194;-79
2023/04/16 12:51:34;;;;;;;4.45;2.90;;;;;;;;;;5110998;28;20210;-80
2023/04/16 12:54:01;;;;;;;6.90;2.92;;;;;;;;;;5125689;28;20254;-80
2023/04/16 12:56:28;;;;;;;4.32;2.70;;;;;;;;;;5110182;28;20293;-79
2023/04/16 12:58:55;;;;;;;4.38;2.60;;;;;;;;;;5109533;28;20198;-81
2023/04/16 13:01:23;;;;;;;4.65;2.83;;;;;;;;;;5113304;28;20293;-81
2023/04/16 13:03:52;;;;;;;4.88;3.45;;;;;;;;;;5114091;28;20258;-78
2023/04/16 13:06:19;;;;;;;3.83;2.90;;;;;;;;;;5113786;28;20198;-81
2023/04/16 13:08:46;;;;;;;4.55;2.88;;;;;;;;;;5114224;27;20288;-81
2023/04/16 13:11:13;;;;;;;4.15;2.92;;;;;;;;;;5114149;28;20270;-80
2023/04/16 13:13:41;;;;;;;4.25;2.47;;;;;;;;;;5113444;28;20200;-81
2023/04/16 13:16:08;;;;;;;3.10;2.35;;;;;;;;;;5114634;28;20221;-81
2023/04/16 13:18:36;;;;;;;4.32;2.63;;;;;;;;;;5114039;28;20222;-81
2023/04/16 13:21:05;;;;;;;4.82;2.78;;;;;;;;;;5113521;28;20200;-83
2023/04/16 13:23:32;;;;;;;4.00;2.38;;;;;;;;;;5112642;28;20202;-82
2023/04/16 13:25:59;;;;;;;4.30;2.70;;;;;;;;;;5116971;27;20236;-79
2023/04/16 13:28:26;;;;;;;4.03;2.30;;;;;;;;;;5125591;27;20806;-83
2023/04/16 13:30:54;;;;;;;3.85;2.55;;;;;;;;;;5114167;28;20312;-82
2023/04/16 13:33:22;;;;;;;4.45;2.85;;;;;;;;;;5113402;28;20285;-82
2023/04/16 13:35:49;;;;;;;3.60;2.45;;;;;;;;;;5113494;28;20213;-82
2023/04/16 13:38:18;;;;;;;6.50;2.88;;;;;;;;;;5113600;28;20201;-83
2023/04/16 13:40:45;;;;;;;3.03;2.60;;;;;;;;;;5113347;28;20316;-83
2023/04/16 13:43:15;;;;;;;6.53;2.67;;;;;;;;;;5118508;27;20197;-83
2023/04/16 13:45:42;;;;;;;4.05;2.40;;;;;;;;;;5110782;28;20204;-81
2023/04/16 13:48:10;;;;;;;3.35;2.40;;;;;;;;;;5113442;28;20813;-82
2023/04/16 13:50:37;;;;;;;4.22;2.42;;;;;;;;;;5113900;28;20218;-82
2023/04/16 13:53:04;;;;;;;2.90;2.60;;;;;;;;;;5113007;28;20228;-82
2023/04/16 13:55:33;;;;;;;3.28;2.40;;;;;;;;;;5113934;28;20197;-82
2023/04/16 13:58:00;;;;;;;4.55;2.83;;;;;;;;;;5114169;28;20228;-82
2023/04/16 14:00:28;;;;;;;4.32;2.15;;;;;;;;;;5116546;27;20285;-82
2023/04/16 14:02:55;;;;;;;2.95;2.17;;;;;;;;;;5114022;28;20232;-81
2023/04/16 14:05:23;;;;;;;4.93;2.15;;;;;;;;;;5113619;28;20658;-81
2023/04/16 14:07:50;;;;;;;3.03;2.30;;;;;;;;;;5113199;28;20198;-82
2023/04/16 14:10:17;;;;;;;3.30;2.47;;;;;;;;;;5097256;28;20217;-83
2023/04/16 14:12:46;;;;;;;3.63;2.70;;;;;;;;;;5111924;28;20281;-81
2023/04/16 14:15:14;;;;;;;4.15;2.40;;;;;;;;;;5105318;28;20449;-81
2023/04/16 14:17:42;;;;;;;2.63;1.98;;;;;;;;;;5111177;27;20197;-81
2023/04/16 14:20:10;;;;;;;3.70;2.25;;;;;;;;;;5109668;28;20202;-80
2023/04/16 14:22:37;;;;;;;3.40;2.58;;;;;;;;;;5109432;27;20293;-82
2023/04/16 14:25:05;;;;;;;4.20;2.88;;;;;;;;;;5102163;27;20692;-80
2023/04/16 14:27:32;;;;;;;3.05;1.75;;;;;;;;;;5110312;28;20194;-79
2023/04/16 14:30:01;;;;;;;3.40;2.30;;;;;;;;;;5111654;28;20218;-81
2023/04/16 14:32:29;;;;;;;2.95;2.10;;;;;;;;;;5113040;27;20190;-81
2023/04/16 14:34:57;;;;;;;3.67;2.40;;;;;;;;;;5112854;27;20206;-80
2023/04/16 14:37:25;;;;;;;5.22;2.55;;;;;;;;;;5110236;28;20547;-81
2023/04/16 14:39:52;;;;;;;3.30;2.47;;;;;;;;;;5112953;28;20225;-82
2023/04/16 14:42:21;;;;;;;4.68;2.50;;;;;;;;;;5111914;28;20229;-81